createdAt,value
2022-09-16T00:01:30.635Z,10.02
2022-09-16T00:03:58.831Z,10.73
2022-09-16T00:06:28.943Z,10.20
2022-09-16T00:09:00.977Z,11.02
2022-09-16T00:11:33.719Z,9.82
2022-09-16T00:14:02.347Z,10.15
2022-09-16T00:16:30.634Z,10.45
2022-09-16T00:19:00.839Z,11.38
2022-09-16T00:21:29.854Z,11.50
2022-09-16T00:23:58.379Z,11.27
2022-09-16T00:26:26.152Z,11.02
2022-09-16T00:28:53.826Z,10.48
2022-09-16T00:31:21.593Z,10.98
2022-09-16T00:33:49.383Z,11.43
2022-09-16T00:36:19.967Z,10.63
2022-09-16T00:38:52.866Z,10.40
2022-09-16T00:41:25.530Z,10.05
2022-09-16T00:44:01.298Z,10.27
2022-09-16T00:46:49.641Z,10.43
2022-09-16T00:49:31.105Z,10.38
2022-09-16T00:52:02.731Z,10.80
2022-09-16T00:54:32.052Z,10.38
2022-09-16T00:57:01.814Z,11.05
2022-09-16T00:59:36.534Z,9.93
2022-09-16T01:02:08.375Z,11.00
2022-09-16T01:04:48.259Z,9.45
2022-09-16T01:07:17.330Z,11.05
2022-09-16T01:09:45.098Z,10.55
2022-09-16T01:12:12.783Z,10.85
2022-09-16T01:14:56.698Z,10.13
2022-09-16T01:17:32.968Z,10.73
2022-09-16T01:20:54.572Z,10.02
2022-09-16T01:23:34.344Z,10.30
2022-09-16T01:26:20.401Z,11.00
2022-09-16T01:29:15.214Z,10.77
2022-09-16T01:31:53.066Z,10.02
2022-09-16T01:34:42.416Z,10.63
2022-09-16T01:37:25.149Z,10.35
2022-09-16T01:40:16.301Z,10.13
2022-09-16T01:42:58.035Z,9.93
2022-09-16T01:45:56.841Z,9.85
2022-09-16T01:48:28.263Z,9.50
2022-09-16T01:51:48.232Z,9.77
2022-09-16T01:54:26.335Z,9.18
2022-09-16T01:57:01.667Z,9.10
2022-09-16T01:59:42.448Z,9.65
2022-09-16T02:02:35.922Z,8.82
2022-09-16T02:05:09.223Z,8.50
2022-09-16T02:07:42.610Z,8.82
2022-09-16T02:10:23.173Z,9.32
2022-09-16T02:12:54.488Z,9.15
2022-09-16T02:15:26.515Z,8.13
2022-09-16T02:18:04.466Z,8.02
2022-09-16T02:20:36.962Z,7.43
2022-09-16T02:23:22.287Z,7.97
2022-09-16T02:25:52.809Z,7.35
2022-09-16T02:28:27.205Z,6.22
2022-09-16T02:31:00.096Z,5.70
2022-09-16T02:33:44.980Z,5.93
2022-09-16T02:36:17.642Z,6.32
2022-09-16T02:38:50.570Z,5.18
2022-09-16T02:41:18.557Z,5.57
2022-09-16T02:43:46.782Z,5.22
2022-09-16T02:46:26.228Z,5.13
2022-09-16T02:49:18.296Z,5.10
2022-09-16T02:52:10.635Z,5.03
2022-09-16T02:55:13.588Z,4.30
2022-09-16T02:57:41.792Z,4.32
2022-09-16T03:00:10.343Z,4.30
2022-09-16T03:02:38.159Z,4.32
2022-09-16T03:05:06.294Z,4.10
2022-09-16T03:07:34.651Z,4.22
2022-09-16T03:10:03.254Z,4.00
2022-09-16T03:12:49.720Z,4.63
2022-09-16T03:15:44.366Z,4.43
2022-09-16T03:18:35.240Z,4.13
2022-09-16T03:21:17.494Z,4.07
2022-09-16T03:23:57.415Z,4.38
2022-09-16T03:26:49.566Z,4.80
2022-09-16T03:29:18.078Z,4.75
2022-09-16T03:32:15.412Z,3.92
2022-09-16T03:34:49.829Z,4.57
2022-09-16T03:37:21.608Z,4.50
2022-09-16T03:39:55.658Z,4.70
2022-09-16T03:42:23.627Z,4.50
2022-09-16T03:44:51.287Z,5.38
2022-09-16T03:47:19.226Z,4.68
2022-09-16T03:49:46.958Z,4.88
2022-09-16T03:52:14.703Z,5.40
2022-09-16T03:54:42.377Z,5.18
2022-09-16T03:57:10.454Z,5.18
2022-09-16T03:59:38.076Z,4.68
2022-09-16T04:02:05.951Z,4.93
2022-09-16T04:04:34.034Z,5.30
2022-09-16T04:07:01.575Z,5.90
2022-09-16T04:09:29.184Z,5.38
2022-09-16T04:11:57.044Z,5.60
2022-09-16T04:14:24.718Z,5.47
2022-09-16T04:16:52.307Z,5.80
2022-09-16T04:19:20.190Z,5.80
2022-09-16T04:21:47.883Z,5.95
2022-09-16T04:24:15.417Z,5.43
2022-09-16T04:26:43.803Z,5.57
2022-09-16T04:29:11.737Z,5.28
2022-09-16T04:31:39.513Z,5.20
2022-09-16T04:34:07.396Z,5.60
2022-09-16T04:36:35.588Z,5.45
2022-09-16T04:39:03.651Z,5.30
2022-09-16T04:41:31.697Z,5.45
2022-09-16T04:44:00.450Z,5.70
2022-09-16T04:46:30.773Z,6.10
2022-09-16T04:49:00.081Z,6.05
2022-09-16T04:51:28.713Z,6.32
2022-09-16T04:53:57.509Z,6.32
2022-09-16T04:56:27.825Z,6.10
2022-09-16T04:58:59.565Z,6.20
2022-09-16T05:01:31.284Z,6.30
2022-09-16T05:04:01.780Z,6.78
2022-09-16T05:06:32.491Z,5.93
2022-09-16T05:09:01.105Z,6.57
2022-09-16T05:11:36.968Z,6.05
2022-09-16T05:14:08.709Z,6.35
2022-09-16T05:16:36.380Z,6.13
2022-09-16T05:19:04.974Z,6.20
2022-09-16T05:21:36.224Z,5.30
2022-09-16T05:24:08.577Z,5.72
2022-09-16T05:26:39.035Z,6.00
2022-09-16T05:29:14.451Z,6.00
2022-09-16T05:31:44.329Z,5.55
2022-09-16T05:34:28.509Z,5.60
2022-09-16T05:39:25.481Z,4.80
2022-09-16T05:41:59.931Z,5.03
2022-09-16T05:44:29.274Z,4.53
2022-09-16T05:46:57.335Z,4.50
2022-09-16T05:49:25.722Z,5.15
2022-09-16T05:51:55.132Z,4.93
2022-09-16T05:54:25.080Z,4.80
2022-09-16T05:56:52.836Z,4.25
2022-09-16T05:59:22.607Z,3.75
2022-09-16T06:01:50.461Z,4.65
2022-09-16T06:04:18.223Z,4.45
2022-09-16T06:06:47.160Z,4.20
2022-09-16T06:09:21.061Z,3.90
2022-09-16T06:14:19.509Z,4.40
2022-09-16T06:16:48.961Z,4.10
2022-09-16T06:19:18.653Z,4.18
2022-09-16T06:21:47.523Z,4.07
2022-09-16T06:24:17.110Z,4.20
2022-09-16T06:26:46.940Z,4.28
2022-09-16T06:29:16.708Z,3.83
2022-09-16T06:31:44.580Z,4.40
2022-09-16T06:34:18.673Z,4.30
2022-09-16T06:36:47.245Z,4.50
2022-09-16T06:39:17.117Z,3.95
2022-09-16T06:41:49.134Z,4.07
2022-09-16T06:44:17.081Z,3.78
2022-09-16T06:46:44.835Z,3.47
2022-09-16T06:49:13.114Z,3.95
2022-09-16T06:51:41.656Z,3.95
2022-09-16T06:54:10.931Z,3.33
2022-09-16T06:56:41.251Z,3.85
2022-09-16T06:59:10.405Z,3.28
2022-09-16T07:01:38.489Z,3.45
2022-09-16T07:04:11.053Z,4.00
2022-09-16T07:09:27.270Z,3.17
2022-09-16T07:11:55.371Z,3.33
2022-09-16T07:14:23.281Z,4.35
2022-09-16T07:16:51.241Z,3.08
2022-09-16T07:19:19.491Z,3.58
2022-09-16T07:21:47.228Z,3.70
2022-09-16T07:24:15.260Z,3.00
2022-09-16T07:26:44.227Z,2.78
2022-09-16T07:29:15.017Z,2.90
2022-09-16T07:31:43.134Z,3.30
2022-09-16T07:34:12.594Z,3.33
2022-09-16T07:36:41.838Z,2.97
2022-09-16T07:39:10.504Z,2.80
2022-09-16T07:41:41.249Z,2.88
2022-09-16T07:44:15.275Z,4.43
2022-09-16T07:46:43.746Z,4.53
2022-09-16T07:49:14.342Z,2.45
2022-09-16T07:51:42.571Z,1.98
2022-09-16T07:54:13.719Z,2.13
2022-09-16T07:56:42.954Z,1.92
2022-09-16T07:59:17.665Z,1.98
2022-09-16T08:01:47.866Z,1.92
2022-09-16T08:04:17.261Z,1.73
2022-09-16T08:06:45.176Z,1.65
2022-09-16T08:09:38.570Z,1.70
2022-09-16T08:12:03.567Z,1.73
2022-09-16T08:14:31.380Z,1.58
2022-09-16T08:16:59.061Z,1.70
2022-09-16T08:19:26.951Z,1.60
2022-09-16T08:21:54.586Z,1.80
2022-09-16T08:24:22.401Z,1.83
2022-09-16T08:26:50.298Z,1.65
2022-09-16T08:29:18.520Z,1.73
2022-09-16T08:31:46.470Z,1.90
2022-09-16T08:34:15.988Z,1.98
2022-09-16T08:36:44.038Z,1.35
2022-09-16T08:39:12.153Z,1.35
2022-09-16T08:42:30.415Z,2.10
2022-09-16T08:45:31.713Z,1.33
2022-09-16T08:48:34.877Z,1.58
2022-09-16T08:51:04.243Z,1.73
2022-09-16T08:53:38.445Z,1.70
2022-09-16T08:58:48.787Z,1.50
2022-09-16T09:01:34.980Z,1.70
2022-09-16T09:04:03.976Z,1.60
2022-09-16T09:06:51.108Z,1.35
2022-09-16T09:09:37.322Z,1.42
2022-09-16T09:12:26.737Z,1.58
2022-09-16T09:15:16.892Z,1.83
2022-09-16T09:18:02.814Z,1.50
2022-09-16T09:21:05.958Z,1.65
2022-09-16T09:24:07.615Z,10.25
2022-09-16T09:27:12.248Z,1.40
2022-09-16T09:29:50.392Z,1.35
2022-09-16T09:32:49.388Z,1.45
2022-09-16T09:35:25.016Z,1.60
2022-09-16T09:38:14.892Z,1.52
2022-09-16T09:40:56.750Z,1.52
2022-09-16T09:43:34.227Z,1.48
2022-09-16T09:46:13.425Z,1.65
2022-09-16T09:48:48.151Z,1.77
2022-09-16T09:51:38.034Z,1.80
2022-09-16T09:54:29.755Z,1.65
2022-09-16T09:57:03.669Z,1.50
2022-09-16T09:59:42.738Z,1.55
2022-09-16T10:02:22.658Z,1.38
2022-09-16T10:04:51.062Z,1.45
2022-09-16T10:07:23.465Z,1.25
2022-09-16T10:10:01.488Z,1.77
2022-09-16T10:12:32.102Z,1.40
2022-09-16T10:15:00.505Z,1.50
2022-09-16T10:17:37.350Z,1.40
2022-09-16T10:20:23.916Z,2.08
2022-09-16T10:23:07.048Z,1.23
2022-09-16T10:25:35.535Z,1.52
2022-09-16T10:28:06.324Z,1.55
2022-09-16T10:30:54.362Z,1.48
2022-09-16T10:33:30.502Z,1.30
2022-09-16T10:36:02.537Z,1.63
2022-09-16T10:38:47.138Z,1.30
2022-09-16T10:41:24.024Z,1.35
2022-09-16T10:44:02.476Z,1.63
2022-09-16T10:46:31.217Z,1.58
2022-09-16T10:49:10.810Z,1.60
2022-09-16T10:51:38.694Z,1.25
2022-09-16T10:54:07.132Z,1.40
2022-09-16T10:56:48.140Z,1.80
2022-09-16T10:59:16.361Z,1.83
2022-09-16T11:02:29.074Z,1.52
2022-09-16T11:05:21.629Z,1.50
2022-09-16T11:10:42.455Z,1.40
2022-09-16T11:13:25.201Z,1.58
2022-09-16T11:16:23.853Z,1.75
2022-09-16T11:19:26.345Z,1.90
2022-09-16T11:22:21.306Z,1.50
2022-09-16T11:24:49.300Z,1.13
2022-09-16T11:27:31.090Z,1.23
2022-09-16T11:30:15.037Z,1.40
2022-09-16T11:33:04.676Z,1.50
2022-09-16T11:36:29.263Z,1.20
2022-09-16T11:39:17.112Z,0.98
2022-09-16T11:42:00.084Z,1.13
2022-09-16T11:44:52.723Z,1.38
2022-09-16T11:47:40.829Z,1.63
2022-09-16T11:50:46.216Z,1.38
2022-09-16T11:56:26.195Z,1.45
2022-09-16T11:58:58.033Z,1.30
2022-09-16T12:01:50.211Z,1.30
2022-09-16T12:04:33.699Z,1.27
2022-09-16T12:07:25.819Z,1.30
2022-09-16T12:10:05.699Z,1.80
2022-09-16T12:12:38.904Z,1.90
2022-09-16T12:15:21.354Z,1.60
2022-09-16T12:18:08.513Z,1.50
2022-09-16T12:20:41.800Z,1.15
2022-09-16T12:23:22.498Z,1.50
2022-09-16T12:25:59.392Z,1.33
2022-09-16T12:28:33.828Z,1.23
2022-09-16T12:31:23.066Z,1.30
2022-09-16T12:34:03.790Z,1.20
2022-09-16T12:36:35.772Z,1.27
2022-09-16T12:39:03.948Z,1.23
2022-09-16T12:42:09.986Z,1.42
2022-09-16T12:45:08.072Z,1.30
2022-09-16T12:48:05.587Z,1.30
2022-09-16T12:51:01.732Z,1.45
2022-09-16T12:53:54.507Z,1.40
2022-09-16T12:56:59.817Z,1.50
2022-09-16T13:02:04.650Z,1.35
2022-09-16T13:04:38.893Z,1.20
2022-09-16T13:07:07.629Z,1.40
2022-09-16T13:09:40.795Z,1.50
2022-09-16T13:12:44.831Z,1.33
2022-09-16T13:15:29.391Z,1.30
2022-09-16T13:20:47.869Z,1.60
2022-09-16T13:23:32.962Z,1.20
2022-09-16T13:26:09.542Z,1.58
2022-09-16T13:28:40.780Z,1.38
2022-09-16T13:31:11.301Z,1.50
2022-09-16T13:33:44.024Z,1.30
2022-09-16T13:36:18.564Z,1.40
2022-09-16T13:38:59.232Z,1.42
2022-09-16T13:41:35.016Z,1.40
2022-09-16T13:44:23.733Z,1.40
2022-09-16T13:46:51.435Z,1.60
2022-09-16T13:49:21.615Z,1.88
2022-09-16T13:51:50.946Z,1.50
2022-09-16T13:54:22.738Z,1.27
2022-09-16T13:57:12.521Z,1.63
2022-09-16T14:03:02.925Z,1.40
2022-09-16T14:05:51.967Z,1.40
2022-09-16T14:08:44.010Z,1.38
2022-09-16T14:11:24.006Z,1.60
2022-09-16T14:14:05.127Z,1.50
2022-09-16T14:16:35.406Z,1.30
2022-09-16T14:19:16.789Z,1.75
2022-09-16T14:21:44.523Z,1.42
2022-09-16T14:24:20.365Z,1.52
2022-09-16T14:26:52.832Z,1.40
2022-09-16T14:29:21.864Z,1.45
2022-09-16T14:31:52.675Z,1.30
2022-09-16T14:34:29.905Z,1.40
2022-09-16T14:36:58.113Z,1.20
2022-09-16T14:39:28.200Z,1.42
2022-09-16T14:41:59.230Z,1.33
2022-09-16T14:44:32.018Z,1.35
2022-09-16T14:47:08.859Z,1.23
2022-09-16T14:49:41.779Z,1.33
2022-09-16T14:52:23.134Z,1.38
2022-09-16T14:54:51.958Z,1.50
2022-09-16T14:57:25.116Z,1.50
2022-09-16T14:59:58.762Z,1.30
2022-09-16T15:02:56.037Z,1.55
2022-09-16T15:05:39.787Z,1.45
2022-09-16T15:08:17.004Z,1.15
2022-09-16T15:10:56.059Z,2.42
2022-09-16T15:13:44.624Z,2.33
2022-09-16T15:16:22.732Z,1.40
2022-09-16T15:18:54.611Z,1.52
2022-09-16T15:21:29.940Z,1.15
2022-09-16T15:24:01.111Z,1.30
2022-09-16T15:26:42.180Z,1.48
2022-09-16T15:29:19.299Z,1.27
2022-09-16T15:31:50.352Z,1.05
2022-09-16T15:34:20.940Z,1.10
2022-09-16T15:36:52.032Z,1.70
2022-09-16T15:39:36.059Z,1.40
2022-09-16T15:42:20.470Z,1.47
2022-09-16T15:44:57.864Z,1.23
2022-09-16T15:47:36.058Z,1.40
2022-09-16T15:50:18.025Z,1.20
2022-09-16T15:52:55.762Z,1.50
2022-09-16T15:55:53.146Z,1.30
2022-09-16T15:58:24.340Z,1.92
2022-09-16T16:00:57.793Z,1.77
2022-09-16T16:03:26.831Z,1.40
2022-09-16T16:05:55.231Z,1.60
2022-09-16T16:08:48.274Z,1.63
2022-09-16T16:11:19.218Z,1.75
2022-09-16T16:13:47.490Z,1.45
2022-09-16T16:16:16.707Z,1.58
2022-09-16T16:18:46.318Z,1.52
2022-09-16T16:21:17.542Z,1.60
2022-09-16T16:23:45.513Z,1.50
2022-09-16T16:26:13.378Z,1.70
2022-09-16T16:28:41.057Z,1.63
2022-09-16T16:31:17.801Z,1.67
2022-09-16T16:33:47.545Z,1.50
2022-09-16T16:36:18.378Z,1.50
2022-09-16T16:38:46.371Z,1.60
2022-09-16T16:41:20.902Z,1.92
2022-09-16T16:43:49.851Z,1.67
2022-09-16T16:46:19.350Z,1.35
2022-09-16T16:48:47.493Z,1.48
2022-09-16T16:51:15.450Z,1.20
2022-09-16T16:53:47.196Z,1.55
2022-09-16T16:56:15.734Z,1.63
2022-09-16T16:58:43.714Z,1.60
2022-09-16T17:01:16.782Z,2.08
2022-09-16T17:03:46.290Z,2.67
2022-09-16T17:06:14.516Z,2.30
2022-09-16T17:08:42.358Z,2.05
2022-09-16T17:11:11.011Z,1.77
2022-09-16T17:13:45.328Z,1.90
2022-09-16T17:16:15.335Z,2.30
2022-09-16T17:18:43.723Z,2.08
2022-09-16T17:21:14.454Z,2.30
2022-09-16T17:23:42.531Z,2.05
2022-09-16T17:26:11.289Z,2.05
2022-09-16T17:28:40.946Z,2.33
2022-09-16T17:31:27.778Z,2.60
2022-09-16T17:34:07.207Z,2.40
2022-09-16T17:36:37.435Z,2.50
2022-09-16T17:39:11.529Z,2.53
2022-09-16T17:41:39.226Z,3.15
2022-09-16T17:44:08.125Z,2.63
2022-09-16T17:46:35.950Z,3.00
2022-09-16T17:49:07.680Z,3.20
2022-09-16T17:51:35.976Z,3.72
2022-09-16T17:54:04.027Z,3.25
2022-09-16T17:56:31.599Z,2.97
2022-09-16T17:59:00.279Z,3.10
2022-09-16T18:01:28.259Z,3.53
2022-09-16T18:03:56.621Z,3.17
2022-09-16T18:06:35.504Z,2.88
2022-09-16T18:09:07.175Z,3.05
2022-09-16T18:11:36.209Z,3.35
2022-09-16T18:14:06.044Z,3.00
2022-09-16T18:16:33.909Z,2.80
2022-09-16T18:19:02.737Z,3.15
2022-09-16T18:21:32.492Z,3.38
2022-09-16T18:24:02.901Z,3.55
2022-09-16T18:26:32.122Z,3.60
2022-09-16T18:29:11.371Z,3.72
2022-09-16T18:31:43.808Z,4.22
2022-09-16T18:34:12.844Z,4.30
2022-09-16T18:36:41.851Z,4.78
2022-09-16T18:39:17.213Z,5.10
2022-09-16T18:41:46.794Z,5.05
2022-09-16T18:44:19.986Z,5.25
2022-09-16T18:46:48.228Z,4.50
2022-09-16T18:49:17.510Z,4.88
2022-09-16T18:51:51.319Z,4.30
2022-09-16T18:54:29.113Z,3.95
2022-09-16T18:57:01.887Z,4.57
2022-09-16T18:59:32.024Z,4.57
2022-09-16T19:02:03.391Z,4.55
2022-09-16T19:04:38.043Z,4.30
2022-09-16T19:07:08.663Z,3.90
2022-09-16T19:09:39.680Z,4.18
2022-09-16T19:12:10.925Z,4.30
2022-09-16T19:14:40.123Z,4.43
2022-09-16T19:17:08.365Z,4.95
2022-09-16T19:19:36.180Z,4.57
2022-09-16T19:22:05.856Z,4.43
2022-09-16T19:24:35.104Z,5.10
2022-09-16T19:27:02.931Z,5.95
2022-09-16T19:29:32.593Z,6.88
2022-09-16T19:32:00.580Z,6.97
2022-09-16T19:34:28.461Z,6.13
2022-09-16T19:36:56.861Z,6.28
2022-09-16T19:39:26.922Z,6.78
2022-09-16T19:41:54.659Z,5.95
2022-09-16T19:44:22.499Z,6.25
2022-09-16T19:46:50.734Z,5.82
2022-09-16T19:49:21.052Z,6.28
2022-09-16T19:51:50.173Z,6.00
2022-09-16T19:54:18.343Z,5.90
2022-09-16T19:56:50.613Z,5.80
2022-09-16T19:59:19.672Z,5.50
2022-09-16T20:01:48.112Z,6.05
2022-09-16T20:04:19.786Z,5.45
2022-09-16T20:06:48.229Z,5.47
2022-09-16T20:09:16.943Z,6.65
2022-09-16T20:11:46.572Z,5.78
2022-09-16T20:14:21.511Z,5.43
2022-09-16T20:16:50.933Z,5.80
2022-09-16T20:19:20.852Z,5.90
2022-09-16T20:21:48.915Z,6.35
2022-09-16T20:24:19.368Z,5.40
2022-09-16T20:26:50.618Z,6.45
2022-09-16T20:29:19.831Z,6.38
2022-09-16T20:31:50.115Z,6.05
2022-09-16T20:34:18.182Z,6.22
2022-09-16T20:36:46.325Z,7.30
2022-09-16T20:39:15.261Z,6.45
2022-09-16T20:41:45.742Z,7.18
2022-09-16T20:44:15.776Z,7.47
2022-09-16T20:46:44.020Z,7.78
2022-09-16T20:49:15.920Z,6.97
2022-09-16T20:51:44.396Z,7.45
2022-09-16T20:54:14.312Z,7.93
2022-09-16T20:56:44.555Z,7.88
2022-09-16T20:59:14.374Z,7.38
2022-09-16T21:01:42.871Z,7.72
2022-09-16T21:04:15.983Z,7.55
2022-09-16T21:06:45.497Z,7.57
2022-09-16T21:09:16.253Z,8.10
2022-09-16T21:11:44.897Z,7.43
2022-09-16T21:14:16.245Z,7.72
2022-09-16T21:16:46.917Z,7.20
2022-09-16T21:19:16.664Z,7.68
2022-09-16T21:21:47.797Z,7.63
2022-09-16T21:24:16.845Z,7.75
2022-09-16T21:26:45.411Z,6.95
2022-09-16T21:29:15.574Z,8.05
2022-09-16T21:31:44.052Z,7.57
2022-09-16T21:34:21.036Z,7.18
2022-09-16T21:36:50.349Z,7.43
2022-09-16T21:39:20.466Z,7.65
2022-09-16T21:41:48.914Z,7.30
2022-09-16T21:44:17.823Z,6.97
2022-09-16T21:46:46.693Z,6.75
2022-09-16T21:49:25.512Z,6.95
2022-09-16T21:51:58.021Z,7.10
2022-09-16T21:54:26.708Z,6.88
2022-09-16T21:56:54.824Z,7.22
2022-09-16T21:59:23.629Z,6.68
2022-09-16T22:01:52.537Z,7.55
2022-09-16T22:04:23.200Z,7.20
2022-09-16T22:06:54.744Z,7.00
2022-09-16T22:09:23.502Z,7.18
2022-09-16T22:11:52.073Z,7.50
2022-09-16T22:14:19.761Z,6.60
2022-09-16T22:16:48.050Z,7.13
2022-09-16T22:19:19.211Z,6.80
2022-09-16T22:21:49.840Z,7.05
2022-09-16T22:24:20.476Z,6.55
2022-09-16T22:26:50.700Z,6.68
2022-09-16T22:29:18.833Z,5.97
2022-09-16T22:31:47.108Z,6.85
2022-09-16T22:34:15.063Z,6.53
2022-09-16T22:36:42.855Z,6.47
2022-09-16T22:39:19.533Z,7.07
2022-09-16T22:41:47.738Z,7.00
2022-09-16T22:44:15.788Z,6.60
2022-09-16T22:46:46.317Z,6.82
2022-09-16T22:49:15.281Z,7.00
2022-09-16T22:51:43.304Z,6.70
2022-09-16T22:54:13.171Z,6.18
2022-09-16T22:56:41.653Z,7.10
2022-09-16T22:59:20.608Z,6.50
2022-09-16T23:01:49.186Z,6.35
2022-09-16T23:04:18.580Z,5.93
2022-09-16T23:06:47.300Z,6.57
2022-09-16T23:09:15.358Z,6.63
2022-09-16T23:11:43.228Z,6.85
2022-09-16T23:14:15.675Z,7.15
2022-09-16T23:16:43.460Z,7.25
2022-09-16T23:19:12.107Z,7.60
2022-09-16T23:21:40.893Z,7.78
2022-09-16T23:24:13.359Z,7.90
2022-09-16T23:26:41.484Z,7.70
2022-09-16T23:29:11.945Z,7.32
2022-09-16T23:31:43.186Z,8.23
2022-09-16T23:34:21.694Z,7.43
2022-09-16T23:36:50.499Z,7.57
2022-09-16T23:39:19.418Z,7.63
2022-09-16T23:41:49.438Z,8.20
2022-09-16T23:44:17.575Z,7.22
2022-09-16T23:46:45.732Z,7.65
2022-09-16T23:49:13.702Z,7.80
2022-09-16T23:51:41.216Z,7.05
2022-09-16T23:54:09.025Z,7.32
2022-09-16T23:56:36.963Z,8.13
2022-09-16T23:59:04.851Z,7.38
